34.3°F
Current conditions from King Hill
Updated every 5 minutes
 
  Saturday November 1, 2014

Station Historical Data
Daily Summary for April 22, 2012 Units:  English    Metric   Both
« Previous Day
Next Day »
Daily Weekly Monthly Yearly Custom
  High: Low: Average:
Temperature: 39.4 °F 31.9 °F 35.3 °F
Dew Point: 35.7 °F 30.3 °F 32.9 °F
Humidity: 100% 82% 91%
Wind Speed: 6.0mph 0.0mph 2.2mph
Wind Gust: 18.0mph - -
Wind- - ENE
Pressure: 29.94 in 29.77 in -
Precipitation: 0.35 in    
Historical Graphs
 
 
Tabular Data for April 22, 2012
Time Temperature Dew Point Pressure Wind Wind Speed Wind Gust Humidity Daily Rainfall
00:04 35.9 °F 34.1 °F 29.84 in Calm   6.0 mph 93% 0.00 in
00:09 35.8 °F 34.0 °F 29.84 in Calm   6.0 mph 93% 0.00 in
00:14 35.6 °F 33.8 °F 29.84 in NNE 1.0 mph 6.0 mph 93% 0.01 in
00:19 35.5 °F 33.7 °F 29.84 in Calm   6.0 mph 93% 0.01 in
00:24 35.5 °F 33.7 °F 29.85 in Calm   3.0 mph 93% 0.01 in
00:29 35.4 °F 33.6 °F 29.84 in Calm   3.0 mph 93% 0.02 in
00:34 35.4 °F 33.6 °F 29.85 in Calm   4.0 mph 93% 0.02 in
00:44 35.3 °F 33.5 °F 29.85 in North 1.0 mph 6.0 mph 93% 0.03 in
00:49 35.2 °F 33.4 °F 29.84 in Calm   6.0 mph 93% 0.04 in
00:54 35.2 °F 33.4 °F 29.84 in Calm   6.0 mph 93% 0.04 in
00:59 35.2 °F 33.4 °F 29.85 in Calm   4.0 mph 93% 0.06 in
01:04 35.1 °F 33.3 °F 29.84 in Calm   4.0 mph 93% 0.06 in
01:09 35.1 °F 33.3 °F 29.84 in NNE 1.0 mph 3.0 mph 93% 0.07 in
01:14 35.1 °F 33.3 °F 29.84 in Calm   3.0 mph 93% 0.07 in
01:19 35.1 °F 33.3 °F 29.84 in NNE 1.0 mph 3.0 mph 93% 0.08 in
01:24 35.0 °F 33.2 °F 29.84 in Calm   4.0 mph 93% 0.08 in
01:29 34.9 °F 33.1 °F 29.84 in Calm   4.0 mph 93% 0.09 in
01:34 34.7 °F 32.9 °F 29.84 in Calm   7.0 mph 93% 0.10 in
01:39 34.6 °F 32.8 °F 29.84 in Calm   7.0 mph 93% 0.10 in
01:44 34.4 °F 32.6 °F 29.84 in Calm   4.0 mph 93% 0.11 in
01:49 34.4 °F 32.6 °F 29.84 in NNE 1.0 mph 3.0 mph 93% 0.12 in
01:54 34.4 °F 32.6 °F 29.83 in Calm   4.0 mph 93% 0.12 in
01:59 34.4 °F 32.6 °F 29.83 in Calm   4.0 mph 93% 0.12 in
02:04 34.3 °F 32.5 °F 29.83 in Calm   3.0 mph 93% 0.13 in
02:09 34.2 °F 32.4 °F 29.83 in Calm   2.0 mph 93% 0.13 in
02:14 34.1 °F 32.3 °F 29.83 in Calm   2.0 mph 93% 0.14 in
02:19 34.0 °F 32.2 °F 29.83 in Calm   2.0 mph 93% 0.14 in
02:24 33.9 °F 32.1 °F 29.83 in NNE 1.0 mph 5.0 mph 93% 0.14 in
02:29 33.9 °F 32.1 °F 29.83 in Calm   5.0 mph 93% 0.14 in
02:34 33.8 °F 32.0 °F 29.83 in Calm   4.0 mph 93% 0.14 in
02:39 33.8 °F 32.0 °F 29.83 in NNW 1.0 mph 6.0 mph 93% 0.14 in
02:44 33.7 °F 31.9 °F 29.83 in NW 1.0 mph 6.0 mph 93% 0.14 in
02:49 33.7 °F 31.9 °F 29.83 in NNW 1.0 mph 6.0 mph 93% 0.14 in
02:54 33.6 °F 31.8 °F 29.84 in NW 2.0 mph 6.0 mph 93% 0.14 in
02:59 33.5 °F 31.7 °F 29.83 in NW 4.0 mph 6.0 mph 93% 0.14 in
03:04 33.2 °F 31.4 °F 29.84 in NW 4.0 mph 8.0 mph 93% 0.14 in
03:09 32.9 °F 31.1 °F 29.85 in NW 2.0 mph 8.0 mph 93% 0.14 in
03:14 32.6 °F 30.8 °F 29.84 in NW 1.0 mph 8.0 mph 93% 0.14 in
03:19 32.5 °F 30.7 °F 29.84 in Calm   8.0 mph 93% 0.14 in
03:24 32.4 °F 30.6 °F 29.84 in Calm   5.0 mph 93% 0.14 in
03:29 32.4 °F 30.6 °F 29.84 in Calm   5.0 mph 93% 0.14 in
03:34 32.4 °F 30.6 °F 29.84 in Calm   2.0 mph 93% 0.14 in
03:39 32.3 °F 30.5 °F 29.84 in Calm   2.0 mph 93% 0.14 in
03:49 32.3 °F 30.5 °F 29.84 in Calm   3.0 mph 93% 0.14 in
03:54 32.3 °F 30.5 °F 29.85 in NNE 1.0 mph 4.0 mph 93% 0.14 in
03:59 32.2 °F 30.4 °F 29.84 in Calm   5.0 mph 93% 0.14 in
04:04 32.2 °F 30.4 °F 29.84 in Calm   7.0 mph 93% 0.14 in
04:09 32.2 °F 30.4 °F 29.84 in Calm   7.0 mph 93% 0.14 in
04:14 32.2 °F 30.4 °F 29.84 in Calm   4.0 mph 93% 0.14 in
04:19 32.1 °F 30.3 °F 29.84 in Calm   3.0 mph 93% 0.14 in
04:29 32.2 °F 30.7 °F 29.84 in Calm   4.0 mph 94% 0.14 in
04:34 32.2 °F 30.7 °F 29.84 in Calm   6.0 mph 94% 0.14 in
04:39 32.1 °F 30.6 °F 29.84 in Calm   6.0 mph 94% 0.14 in
04:44 32.2 °F 30.7 °F 29.85 in Calm     94% 0.14 in
04:49 32.1 °F 30.6 °F 29.85 in Calm   6.0 mph 94% 0.14 in
04:54 32.1 °F 30.6 °F 29.85 in Calm   6.0 mph 94% 0.14 in
05:00 32.1 °F 30.6 °F 29.85 in North 1.0 mph 5.0 mph 94% 0.14 in
05:09 32.1 °F 30.6 °F 29.85 in Calm   5.0 mph 94% 0.14 in
05:14 32.0 °F 30.5 °F 29.85 in Calm   5.0 mph 94% 0.14 in
05:19 32.0 °F 30.5 °F 29.85 in Calm   6.0 mph 94% 0.14 in
05:24 32.0 °F 30.5 °F 29.85 in NNE 1.0 mph 6.0 mph 94% 0.14 in
05:29 32.1 °F 30.6 °F 29.85 in NNE 1.0 mph 7.0 mph 94% 0.14 in
05:34 32.0 °F 30.5 °F 29.85 in NNE 1.0 mph 7.0 mph 94% 0.14 in
05:39 32.0 °F 30.5 °F 29.84 in NNE 3.0 mph 7.0 mph 94% 0.14 in
05:44 31.9 °F 30.4 °F 29.85 in Calm   7.0 mph 94% 0.14 in
05:49 31.9 °F 30.4 °F 29.85 in Calm   6.0 mph 94% 0.14 in
05:54 31.9 °F 30.4 °F 29.85 in NNW 1.0 mph 8.0 mph 94% 0.14 in
05:59 31.9 °F 30.4 °F 29.85 in NNE 1.0 mph 9.0 mph 94% 0.14 in
06:05 31.9 °F 30.4 °F 29.85 in Calm   9.0 mph 94% 0.14 in
06:14 32.0 °F 30.5 °F 29.86 in North 2.0 mph 10.0 mph 94% 0.14 in
06:19 32.0 °F 30.5 °F 29.86 in Calm   10.0 mph 94% 0.14 in
06:25 31.9 °F 30.4 °F 29.86 in Calm   4.0 mph 94% 0.14 in
06:34 32.0 °F 30.5 °F 29.86 in North 1.0 mph 9.0 mph 94% 0.14 in
06:39 32.0 °F 30.5 °F 29.86 in NNE 2.0 mph 9.0 mph 94% 0.14 in
06:44 31.9 °F 30.4 °F 29.86 in NNE 4.0 mph 9.0 mph 94% 0.14 in
06:49 31.9 °F 30.4 °F 29.87 in North 3.0 mph 9.0 mph 94% 0.14 in
06:54 31.9 °F 30.4 °F 29.87 in NNE 1.0 mph 9.0 mph 94% 0.14 in
06:59 32.0 °F 30.5 °F 29.87 in North 1.0 mph 9.0 mph 94% 0.14 in
07:04 32.0 °F 30.5 °F 29.87 in Calm   9.0 mph 94% 0.14 in
07:09 32.0 °F 32.0 °F 29.87 in NNE 1.0 mph 8.0 mph 100% 0.14 in
07:14 32.0 °F 32.0 °F 29.87 in NNE 1.0 mph 8.0 mph 100% 0.14 in
07:19 32.0 °F 30.5 °F 29.87 in NNE 1.0 mph 8.0 mph 94% 0.14 in
07:24 32.0 °F 30.5 °F 29.87 in Calm   8.0 mph 94% 0.14 in
07:29 32.1 °F 30.6 °F 29.87 in ENE 1.0 mph 5.0 mph 94% 0.14 in
07:34 32.1 °F 30.6 °F 29.88 in North 2.0 mph 9.0 mph 94% 0.14 in
07:39 32.1 °F 30.6 °F 29.88 in Calm   9.0 mph 94% 0.14 in
07:44 32.1 °F 30.6 °F 29.89 in Calm   7.0 mph 94% 0.14 in
07:49 32.1 °F 30.6 °F 29.90 in North 2.0 mph 7.0 mph 94% 0.14 in
07:54 32.1 °F 30.6 °F 29.90 in Calm   6.0 mph 94% 0.14 in
07:59 32.1 °F 30.6 °F 29.90 in Calm   6.0 mph 94% 0.14 in
08:04 32.2 °F 30.7 °F 29.90 in North 3.0 mph 8.0 mph 94% 0.14 in
08:09 32.2 °F 30.7 °F 29.90 in Calm   8.0 mph 94% 0.14 in
08:14 32.3 °F 30.8 °F 29.91 in Calm   7.0 mph 94% 0.14 in
08:19 32.4 °F 30.9 °F 29.91 in NNE 1.0 mph 6.0 mph 94% 0.14 in
08:24 32.4 °F 30.9 °F 29.92 in NNE 1.0 mph 6.0 mph 94% 0.14 in
08:29 32.5 °F 31.0 °F 29.91 in Calm   6.0 mph 94% 0.14 in
08:34 32.6 °F 31.1 °F 29.92 in Calm   5.0 mph 94% 0.14 in
08:44 32.7 °F 31.2 °F 29.92 in NNE 1.0 mph 5.0 mph 94% 0.14 in
08:49 32.6 °F 31.1 °F 29.92 in NNE 1.0 mph 8.0 mph 94% 0.14 in
08:54 32.7 °F 31.2 °F 29.92 in NNE 2.0 mph 8.0 mph 94% 0.14 in
08:59 32.8 °F 31.3 °F 29.92 in Calm   7.0 mph 94% 0.14 in
09:04 32.8 °F 31.3 °F 29.92 in NNE 1.0 mph 8.0 mph 94% 0.14 in
09:09 32.8 °F 31.3 °F 29.93 in NNE 1.0 mph 8.0 mph 94% 0.14 in
09:14 32.9 °F 31.4 °F 29.93 in North 1.0 mph 6.0 mph 94% 0.14 in
09:19 33.1 °F 31.6 °F 29.92 in North 2.0 mph 7.0 mph 94% 0.14 in
09:24 33.2 °F 31.7 °F 29.92 in NNE 3.0 mph 7.0 mph 94% 0.14 in
09:29 33.3 °F 31.8 °F 29.92 in NNE 3.0 mph 10.0 mph 94% 0.14 in
09:34 33.3 °F 31.8 °F 29.92 in North 2.0 mph 10.0 mph 94% 0.14 in
09:39 33.6 °F 32.1 °F 29.92 in North 1.0 mph 9.0 mph 94% 0.14 in
09:49 33.6 °F 32.1 °F 29.92 in NNE 2.0 mph 8.0 mph 94% 0.14 in
09:54 33.5 °F 32.0 °F 29.92 in NE 2.0 mph 12.0 mph 94% 0.14 in
09:59 33.4 °F 31.9 °F 29.92 in NE 4.0 mph 15.0 mph 94% 0.14 in
10:04 33.5 °F 32.0 °F 29.93 in North 1.0 mph 15.0 mph 94% 0.14 in
10:09 33.8 °F 32.3 °F 29.93 in NNE 1.0 mph 6.0 mph 94% 0.14 in
10:15 34.0 °F 32.5 °F 29.94 in North 2.0 mph 8.0 mph 94% 0.14 in
10:24 33.9 °F 32.4 °F 29.94 in North 1.0 mph 7.0 mph 94% 0.14 in
10:29 34.2 °F 32.7 °F 29.93 in NNE 1.0 mph 8.0 mph 94% 0.14 in
10:34 34.4 °F 32.9 °F 29.93 in North 3.0 mph 9.0 mph 94% 0.14 in
10:39 34.4 °F 32.9 °F 29.93 in North 3.0 mph 9.0 mph 94% 0.14 in
10:44 34.4 °F 32.9 °F 29.93 in North 1.0 mph 7.0 mph 94% 0.14 in
10:49 34.4 °F 32.9 °F 29.93 in NNE 1.0 mph 7.0 mph 94% 0.14 in
10:54 34.9 °F 33.4 °F 29.93 in NNE 1.0 mph 7.0 mph 94% 0.14 in
11:00 35.1 °F 33.5 °F 29.93 in NE 2.0 mph 10.0 mph 94% 0.14 in
11:09 35.3 °F 33.7 °F 29.93 in North 2.0 mph 8.0 mph 94% 0.14 in
11:14 35.3 °F 33.7 °F 29.93 in NNE 3.0 mph 8.0 mph 94% 0.14 in
11:24 35.5 °F 33.9 °F 29.93 in North 2.0 mph 8.0 mph 94% 0.14 in
11:29 35.6 °F 34.0 °F 29.93 in NNE 4.0 mph 8.0 mph 94% 0.14 in
11:34 35.2 °F 33.6 °F 29.93 in NNE 2.0 mph 8.0 mph 94% 0.15 in
11:39 35.3 °F 33.7 °F 29.93 in Calm   8.0 mph 94% 0.15 in
11:45 35.6 °F 34.0 °F 29.93 in NE 1.0 mph 8.0 mph 94% 0.16 in
11:50 35.6 °F 34.0 °F 29.93 in North 3.0 mph 8.0 mph 94% 0.16 in
11:59 36.0 °F 34.4 °F 29.92 in North 1.0 mph 10.0 mph 94% 0.16 in
12:04 36.3 °F 34.7 °F 29.93 in NNE 1.0 mph 9.0 mph 94% 0.16 in
12:09 36.4 °F 34.8 °F 29.92 in North 1.0 mph 6.0 mph 94% 0.17 in
12:14 36.4 °F 34.8 °F 29.93 in North 2.0 mph 7.0 mph 94% 0.17 in
12:19 36.6 °F 35.0 °F 29.92 in Calm   7.0 mph 94% 0.17 in
12:24 36.8 °F 35.2 °F 29.92 in North 1.0 mph 6.0 mph 94% 0.17 in
12:29 36.8 °F 35.2 °F 29.93 in Calm   6.0 mph 94% 0.17 in
12:34 37.0 °F 35.4 °F 29.93 in NNW 1.0 mph 6.0 mph 94% 0.17 in
12:39 37.2 °F 35.6 °F 29.93 in NNE 1.0 mph 6.0 mph 94% 0.17 in
12:45 37.1 °F 35.5 °F 29.93 in NNE 1.0 mph 6.0 mph 94% 0.18 in
12:54 37.1 °F 35.3 °F 29.93 in North 1.0 mph 6.0 mph 93% 0.18 in
12:59 37.2 °F 35.4 °F 29.93 in East 1.0 mph 6.0 mph 93% 0.18 in
13:04 37.4 °F 35.6 °F 29.93 in North 2.0 mph 7.0 mph 93% 0.18 in
13:09 37.4 °F 35.6 °F 29.94 in NNE 3.0 mph 10.0 mph 93% 0.18 in
13:15 37.4 °F 35.3 °F 29.94 in Calm   10.0 mph 92% 0.18 in
13:24 37.6 °F 35.2 °F 29.94 in Calm   5.0 mph 91% 0.18 in
13:29 37.6 °F 35.2 °F 29.94 in Calm   6.0 mph 91% 0.18 in
13:34 37.6 °F 34.9 °F 29.93 in NNE 2.0 mph 8.0 mph 90% 0.18 in
13:40 37.8 °F 35.1 °F 29.94 in Calm   8.0 mph 90% 0.18 in
13:49 37.8 °F 35.1 °F 29.93 in Calm   10.0 mph 90% 0.18 in
13:59 38.4 °F 35.7 °F 29.93 in North 3.0 mph 9.0 mph 90% 0.18 in
14:04 38.4 °F 35.4 °F 29.93 in Calm   9.0 mph 89% 0.18 in
14:09 38.4 °F 35.2 °F 29.93 in NNE 4.0 mph 11.0 mph 88% 0.18 in
14:14 38.3 °F 35.1 °F 29.94 in NE 4.0 mph 11.0 mph 88% 0.18 in
14:19 38.4 °F 34.9 °F 29.94 in NNE 2.0 mph 10.0 mph 87% 0.18 in
14:24 38.5 °F 35.0 °F 29.94 in Calm   8.0 mph 87% 0.18 in
14:29 38.6 °F 35.1 °F 29.94 in NE 4.0 mph 11.0 mph 87% 0.18 in
14:34 38.6 °F 34.8 °F 29.94 in NE 1.0 mph 11.0 mph 86% 0.18 in
14:39 38.5 °F 34.4 °F 29.94 in NNE 2.0 mph 9.0 mph 85% 0.18 in
14:44 38.7 °F 34.9 °F 29.94 in NNE 2.0 mph 9.0 mph 86% 0.18 in
14:49 38.8 °F 35.0 °F 29.94 in North 2.0 mph 9.0 mph 86% 0.18 in
14:55 38.6 °F 34.5 °F 29.93 in NNE 4.0 mph 11.0 mph 85% 0.18 in
15:04 38.8 °F 35.0 °F 29.93 in North 1.0 mph 9.0 mph 86% 0.18 in
15:09 38.8 °F 34.7 °F 29.93 in North 4.0 mph 11.0 mph 85% 0.18 in
15:14 38.6 °F 34.2 °F 29.93 in NNE 2.0 mph 12.0 mph 84% 0.18 in
15:19 38.6 °F 34.5 °F 29.93 in NE 1.0 mph 12.0 mph 85% 0.18 in
15:24 38.8 °F 34.7 °F 29.93 in NNE 3.0 mph 13.0 mph 85% 0.18 in
15:29 38.8 °F 34.7 °F 29.93 in NE 2.0 mph 13.0 mph 85% 0.18 in
15:35 39.0 °F 34.9 °F 29.92 in North 1.0 mph 8.0 mph 85% 0.18 in
15:40 39.1 °F 35.0 °F 29.92 in North 1.0 mph 10.0 mph 85% 0.18 in
15:49 39.4 °F 35.3 °F 29.92 in North 3.0 mph 7.0 mph 85% 0.18 in
15:54 39.3 °F 34.9 °F 29.92 in NNE 2.0 mph 12.0 mph 84% 0.18 in
15:59 39.2 °F 34.5 °F 29.92 in North 4.0 mph 15.0 mph 83% 0.18 in
16:04 39.3 °F 34.6 °F 29.92 in NE 1.0 mph 15.0 mph 83% 0.18 in
16:09 39.4 °F 34.7 °F 29.92 in North 5.0 mph 12.0 mph 83% 0.18 in
16:14 39.4 °F 34.7 °F 29.92 in NNE 1.0 mph 12.0 mph 83% 0.18 in
16:19 39.4 °F 34.7 °F 29.92 in North 2.0 mph 10.0 mph 83% 0.18 in
16:24 39.4 °F 34.7 °F 29.92 in NNE 3.0 mph 10.0 mph 83% 0.18 in
16:29 39.3 °F 34.6 °F 29.92 in NNE 4.0 mph 10.0 mph 83% 0.18 in
16:34 39.2 °F 34.2 °F 29.92 in North 3.0 mph 10.0 mph 82% 0.18 in
16:39 39.0 °F 34.0 °F 29.92 in NNE 4.0 mph 10.0 mph 82% 0.18 in
16:49 38.9 °F 34.2 °F 29.92 in North 2.0 mph 8.0 mph 83% 0.18 in
16:54 38.8 °F 34.1 °F 29.91 in NNE 4.0 mph 11.0 mph 83% 0.18 in
16:59 38.8 °F 34.1 °F 29.91 in NNE 1.0 mph 11.0 mph 83% 0.18 in
17:04 38.7 °F 34.0 °F 29.90 in NNE 3.0 mph 10.0 mph 83% 0.18 in
17:09 38.7 °F 34.0 °F 29.90 in North 2.0 mph 10.0 mph 83% 0.18 in
17:14 38.6 °F 33.9 °F 29.91 in NNE 2.0 mph 10.0 mph 83% 0.18 in
17:19 38.6 °F 33.9 °F 29.90 in NE 3.0 mph 14.0 mph 83% 0.18 in
17:24 38.5 °F 33.8 °F 29.90 in North 4.0 mph 14.0 mph 83% 0.18 in
17:30 38.4 °F 33.7 °F 29.90 in NNE 5.0 mph 16.0 mph 83% 0.18 in
17:39 38.0 °F 33.0 °F 29.91 in NNE 5.0 mph 18.0 mph 82% 0.18 in
17:44 37.9 °F 33.2 °F 29.91 in NNE 4.0 mph 13.0 mph 83% 0.18 in
17:49 37.9 °F 33.2 °F 29.91 in NNE 5.0 mph 13.0 mph 83% 0.18 in
17:54 37.8 °F 33.1 °F 29.91 in NNE 6.0 mph 16.0 mph 83% 0.18 in
18:04 37.6 °F 33.2 °F 29.91 in NNE 5.0 mph 16.0 mph 84% 0.18 in
18:14 37.5 °F 33.1 °F 29.91 in NE 2.0 mph 12.0 mph 84% 0.18 in
18:19 37.5 °F 33.1 °F 29.91 in NE 3.0 mph 10.0 mph 84% 0.18 in
18:24 37.4 °F 33.0 °F 29.91 in NNE 3.0 mph 13.0 mph 84% 0.18 in
18:29 37.3 °F 32.9 °F 29.91 in North 1.0 mph 13.0 mph 84% 0.18 in
18:34 37.3 °F 32.9 °F 29.90 in NE 3.0 mph 13.0 mph 84% 0.18 in
18:39 37.2 °F 32.8 °F 29.91 in NNE 4.0 mph 13.0 mph 84% 0.18 in
18:44 37.1 °F 32.7 °F 29.91 in NNE 5.0 mph 10.0 mph 84% 0.18 in
18:49 37.1 °F 32.7 °F 29.91 in NNE 4.0 mph 10.0 mph 84% 0.18 in
18:54 37.1 °F 33.0 °F 29.90 in NE 3.0 mph 9.0 mph 85% 0.18 in
18:59 37.1 °F 33.0 °F 29.91 in North 1.0 mph 9.0 mph 85% 0.18 in
19:04 37.0 °F 32.9 °F 29.91 in NE 1.0 mph 9.0 mph 85% 0.18 in
19:09 37.0 °F 32.9 °F 29.91 in NE 2.0 mph 9.0 mph 85% 0.18 in
19:14 36.9 °F 32.8 °F 29.91 in NE 3.0 mph 9.0 mph 85% 0.18 in
19:19 36.8 °F 33.0 °F 29.91 in NE 1.0 mph 8.0 mph 86% 0.18 in
19:24 36.8 °F 33.0 °F 29.91 in NNE 2.0 mph 8.0 mph 86% 0.18 in
19:29 36.6 °F 32.8 °F 29.91 in NNE 4.0 mph 13.0 mph 86% 0.18 in
19:34 36.5 °F 33.0 °F 29.90 in NNE 2.0 mph 13.0 mph 87% 0.18 in
19:39 36.5 °F 33.0 °F 29.91 in NNE 4.0 mph 14.0 mph 87% 0.19 in
19:45 36.4 °F 32.9 °F 29.90 in NNE 3.0 mph 14.0 mph 87% 0.19 in
19:59 36.1 °F 32.9 °F 29.90 in NNE 2.0 mph 6.0 mph 88% 0.20 in
20:04 36.1 °F 32.9 °F 29.90 in NNE 3.0 mph 8.0 mph 88% 0.20 in
20:09 36.0 °F 32.8 °F 29.90 in NNE 5.0 mph 12.0 mph 88% 0.20 in
20:14 36.0 °F 33.1 °F 29.90 in NNE 2.0 mph 12.0 mph 89% 0.20 in
20:19 36.0 °F 33.1 °F 29.90 in NNE 3.0 mph 10.0 mph 89% 0.21 in
20:29 35.9 °F 33.0 °F 29.90 in NNE 1.0 mph 10.0 mph 89% 0.22 in
20:34 35.9 °F 33.0 °F 29.90 in North 2.0 mph 6.0 mph 89% 0.22 in
20:39 35.9 °F 33.0 °F 29.90 in NNE 1.0 mph 8.0 mph 89% 0.22 in
20:44 35.9 °F 33.3 °F 29.90 in NNE 1.0 mph 8.0 mph 90% 0.22 in
20:49 35.9 °F 33.3 °F 29.90 in NNE 1.0 mph 8.0 mph 90% 0.22 in
20:54 35.9 °F 33.3 °F 29.89 in NNE 1.0 mph 10.0 mph 90% 0.22 in
20:59 35.9 °F 33.3 °F 29.89 in NNE 3.0 mph 10.0 mph 90% 0.23 in
21:04 35.9 °F 33.3 °F 29.89 in NNE 2.0 mph 8.0 mph 90% 0.23 in
21:09 35.9 °F 33.3 °F 29.89 in NE 1.0 mph 7.0 mph 90% 0.23 in
21:14 35.9 °F 33.3 °F 29.89 in NNE 1.0 mph 6.0 mph 90% 0.24 in
21:19 35.9 °F 33.3 °F 29.89 in NNE 3.0 mph 8.0 mph 90% 0.24 in
21:24 35.9 °F 33.5 °F 29.89 in NNE 1.0 mph 9.0 mph 91% 0.24 in
21:29 35.9 °F 33.5 °F 29.89 in NE 2.0 mph 9.0 mph 91% 0.24 in
21:34 35.9 °F 33.5 °F 29.89 in NNE 3.0 mph 8.0 mph 91% 0.24 in
21:39 35.9 °F 33.5 °F 29.88 in Calm   8.0 mph 91% 0.25 in
21:45 36.0 °F 33.6 °F 29.88 in NNE 2.0 mph 7.0 mph 91% 0.25 in
21:54 36.0 °F 33.6 °F 29.87 in North 2.0 mph 9.0 mph 91% 0.26 in
21:59 35.9 °F 33.5 °F 29.87 in NNE 2.0 mph 9.0 mph 91% 0.27 in
22:04 35.9 °F 33.5 °F 29.87 in NNE 3.0 mph 8.0 mph 91% 0.27 in
22:09 36.0 °F 33.6 °F 29.87 in NNE 2.0 mph 7.0 mph 91% 0.28 in
22:14 36.0 °F 33.9 °F 29.86 in NNE 2.0 mph 7.0 mph 92% 0.28 in
22:19 35.9 °F 33.8 °F 29.85 in NE 3.0 mph 9.0 mph 92% 0.28 in
22:24 35.9 °F 33.8 °F 29.85 in NNE 2.0 mph 9.0 mph 92% 0.28 in
22:29 35.9 °F 33.8 °F 29.84 in NNE 3.0 mph 11.0 mph 92% 0.28 in
22:34 35.9 °F 33.8 °F 29.84 in North 1.0 mph 11.0 mph 92% 0.28 in
22:39 35.9 °F 33.8 °F 29.84 in NNE 2.0 mph 10.0 mph 92% 0.29 in
22:49 35.8 °F 33.7 °F 29.83 in NNE 2.0 mph 10.0 mph 92% 0.29 in
22:54 35.8 °F 33.7 °F 29.82 in NNE 5.0 mph 15.0 mph 92% 0.30 in
22:59 35.8 °F 33.7 °F 29.82 in NNE 5.0 mph 15.0 mph 92% 0.30 in
23:04 35.8 °F 33.7 °F 29.82 in NNE 3.0 mph 13.0 mph 92% 0.30 in
23:09 35.8 °F 33.7 °F 29.82 in NNE 2.0 mph 13.0 mph 92% 0.31 in
23:14 35.8 °F 33.7 °F 29.81 in NNE 4.0 mph 12.0 mph 92% 0.31 in
23:19 35.8 °F 33.7 °F 29.81 in NNE 3.0 mph 13.0 mph 92% 0.32 in
23:24 35.7 °F 33.9 °F 29.80 in NNE 2.0 mph 13.0 mph 93% 0.32 in
23:29 35.7 °F 33.9 °F 29.80 in NNE 3.0 mph 13.0 mph 93% 0.32 in
23:34 35.7 °F 33.9 °F 29.80 in North 2.0 mph 8.0 mph 93% 0.33 in
23:39 35.7 °F 33.9 °F 29.79 in NNE 4.0 mph 14.0 mph 93% 0.33 in
23:44 35.7 °F 33.9 °F 29.79 in NNE 5.0 mph 14.0 mph 93% 0.34 in
23:49 35.7 °F 33.9 °F 29.78 in NNE 3.0 mph 14.0 mph 93% 0.34 in
23:54 35.6 °F 33.8 °F 29.78 in NNE 3.0 mph 11.0 mph 93% 0.34 in
23:59 35.6 °F 33.8 °F 29.77 in NE 1.0 mph 9.0 mph 93% 0.35 in
Westford Weather
Compliments of Weather Underground

 
 
Current Radar Loop:

Copyright © WestfordWeather.net 2007-2014. All rights reserved.